sensor_id;sensor_type;location;lat;lon;timestamp;pressure;altitude;pressure_sealevel;temperature
51693;BMP280;37777;53.066;21.638;2023-12-14T00:03:57;99655.81;;;1.71
51693;BMP280;37777;53.066;21.638;2023-12-14T00:11:06;99656.31;;;1.73
51693;BMP280;37777;53.066;21.638;2023-12-14T00:18:08;99664.03;;;1.75
51693;BMP280;37777;53.066;21.638;2023-12-14T00:25:10;99669.84;;;1.77
51693;BMP280;37777;53.066;21.638;2023-12-14T00:32:12;99668.59;;;1.74
51693;BMP280;37777;53.066;21.638;2023-12-14T00:39:13;99683.78;;;1.74
51693;BMP280;37777;53.066;21.638;2023-12-14T00:46:15;99682.00;;;1.69
51693;BMP280;37777;53.066;21.638;2023-12-14T00:53:16;99688.34;;;1.73
51693;BMP280;37777;53.066;21.638;2023-12-14T01:00:18;99694.75;;;1.72
51693;BMP280;37777;53.066;21.638;2023-12-14T01:07:20;99702.16;;;1.75
51693;BMP280;37777;53.066;21.638;2023-12-14T01:14:21;99704.81;;;1.75
51693;BMP280;37777;53.066;21.638;2023-12-14T01:21:23;99716.28;;;1.76
51693;BMP280;37777;53.066;21.638;2023-12-14T01:28:24;99713.53;;;1.81
51693;BMP280;37777;53.066;21.638;2023-12-14T01:35:26;99722.84;;;1.83
51693;BMP280;37777;53.066;21.638;2023-12-14T01:42:27;99718.28;;;1.84
51693;BMP280;37777;53.066;21.638;2023-12-14T01:49:29;99717.97;;;1.85
51693;BMP280;37777;53.066;21.638;2023-12-14T01:56:30;99717.69;;;1.87
51693;BMP280;37777;53.066;21.638;2023-12-14T02:03:32;99703.84;;;1.85
51693;BMP280;37777;53.066;21.638;2023-12-14T02:10:34;99706.00;;;1.83
51693;BMP280;37777;53.066;21.638;2023-12-14T02:17:35;99703.06;;;1.84
51693;BMP280;37777;53.066;21.638;2023-12-14T02:24:37;99690.81;;;1.83
51693;BMP280;37777;53.066;21.638;2023-12-14T02:31:38;99688.44;;;1.82
51693;BMP280;37777;53.066;21.638;2023-12-14T02:38:40;99692.97;;;1.81
51693;BMP280;37777;53.066;21.638;2023-12-14T02:45:42;99689.31;;;1.77
51693;BMP280;37777;53.066;21.638;2023-12-14T02:52:43;99690.09;;;1.78
51693;BMP280;37777;53.066;21.638;2023-12-14T02:59:45;99679.44;;;1.78
51693;BMP280;37777;53.066;21.638;2023-12-14T03:06:46;99683.09;;;1.82
51693;BMP280;37777;53.066;21.638;2023-12-14T03:13:47;99682.31;;;1.81
51693;BMP280;37777;53.066;21.638;2023-12-14T03:20:49;99687.84;;;1.85
51693;BMP280;37777;53.066;21.638;2023-12-14T03:27:52;99705.25;;;1.82
51693;BMP280;37777;53.066;21.638;2023-12-14T03:34:53;99712.44;;;1.82
51693;BMP280;37777;53.066;21.638;2023-12-14T03:41:55;99720.44;;;1.82
51693;BMP280;37777;53.066;21.638;2023-12-14T03:48:56;99726.59;;;1.82
51693;BMP280;37777;53.066;21.638;2023-12-14T03:55:58;99734.06;;;1.80
51693;BMP280;37777;53.066;21.638;2023-12-14T04:03:00;99737.81;;;1.79
51693;BMP280;37777;53.066;21.638;2023-12-14T04:10:01;99735.75;;;1.76
51693;BMP280;37777;53.066;21.638;2023-12-14T04:17:03;99753.94;;;1.74
51693;BMP280;37777;53.066;21.638;2023-12-14T04:24:05;99753.94;;;1.74
51693;BMP280;37777;53.066;21.638;2023-12-14T04:31:07;99750.66;;;1.77
51693;BMP280;37777;53.066;21.638;2023-12-14T04:38:08;99757.59;;;1.78
51693;BMP280;37777;53.066;21.638;2023-12-14T04:45:10;99753.44;;;1.72
51693;BMP280;37777;53.066;21.638;2023-12-14T04:52:12;99763.59;;;1.70
51693;BMP280;37777;53.066;21.638;2023-12-14T04:59:13;99768.84;;;1.75
51693;BMP280;37777;53.066;21.638;2023-12-14T05:06:15;99776.84;;;1.75
51693;BMP280;37777;53.066;21.638;2023-12-14T05:13:17;99780.59;;;1.74
51693;BMP280;37777;53.066;21.638;2023-12-14T05:20:18;99788.59;;;1.74
51693;BMP280;37777;53.066;21.638;2023-12-14T05:27:21;99793.72;;;1.71
51693;BMP280;37777;53.066;21.638;2023-12-14T05:34:23;99799.47;;;1.78
51693;BMP280;37777;53.066;21.638;2023-12-14T05:41:24;99813.81;;;1.82
51693;BMP280;37777;53.066;21.638;2023-12-14T05:48:26;99817.56;;;1.81
51693;BMP280;37777;53.066;21.638;2023-12-14T05:55:31;99827.16;;;1.82
51693;BMP280;37777;53.066;21.638;2023-12-14T06:02:33;99842.38;;;1.81
51693;BMP280;37777;53.066;21.638;2023-12-14T06:09:35;99842.88;;;1.83
51693;BMP280;37777;53.066;21.638;2023-12-14T06:16:37;99859.16;;;1.82
51693;BMP280;37777;53.066;21.638;2023-12-14T06:23:38;99857.84;;;1.79
51693;BMP280;37777;53.066;21.638;2023-12-14T06:30:40;99865.16;;;1.74
51693;BMP280;37777;53.066;21.638;2023-12-14T06:37:41;99876.13;;;1.72
51693;BMP280;37777;53.066;21.638;2023-12-14T06:44:43;99886.00;;;1.72
51693;BMP280;37777;53.066;21.638;2023-12-14T06:51:45;99883.91;;;1.68
51693;BMP280;37777;53.066;21.638;2023-12-14T06:58:46;99904.47;;;1.68
51693;BMP280;37777;53.066;21.638;2023-12-14T07:05:50;99914.06;;;1.69
51693;BMP280;37777;53.066;21.638;2023-12-14T07:12:52;99914.59;;;1.66
51693;BMP280;37777;53.066;21.638;2023-12-14T07:19:53;99926.88;;;1.67
51693;BMP280;37777;53.066;21.638;2023-12-14T07:26:59;99935.94;;;1.66
51693;BMP280;37777;53.066;21.638;2023-12-14T07:34:00;99926.66;;;1.63
51693;BMP280;37777;53.066;21.638;2023-12-14T07:41:02;99939.72;;;1.65
51693;BMP280;37777;53.066;21.638;2023-12-14T07:48:04;99932.19;;;1.67
51693;BMP280;37777;53.066;21.638;2023-12-14T07:55:07;99936.94;;;1.70
51693;BMP280;37777;53.066;21.638;2023-12-14T08:02:08;99954.56;;;1.71
51693;BMP280;37777;53.066;21.638;2023-12-14T08:09:10;99949.22;;;1.71
51693;BMP280;37777;53.066;21.638;2023-12-14T08:16:11;99968.81;;;1.80
51693;BMP280;37777;53.066;21.638;2023-12-14T08:23:13;99980.31;;;1.81
51693;BMP280;37777;53.066;21.638;2023-12-14T08:30:15;99982.69;;;1.82
51693;BMP280;37777;53.066;21.638;2023-12-14T08:37:16;99981.63;;;1.83
51693;BMP280;37777;53.066;21.638;2023-12-14T09:16:40;100026.69;;;1.61
51693;BMP280;37777;53.066;21.638;2023-12-14T09:23:42;100034.56;;;1.71
51693;BMP280;37777;53.066;21.638;2023-12-14T09:30:44;100037.75;;;1.73
51693;BMP280;37777;53.066;21.638;2023-12-14T09:37:46;100047.84;;;1.76
51693;BMP280;37777;53.066;21.638;2023-12-14T09:44:48;100056.31;;;1.83
51693;BMP280;37777;53.066;21.638;2023-12-14T09:51:50;100049.88;;;1.84
51693;BMP280;37777;53.066;21.638;2023-12-14T09:58:51;100046.38;;;1.89
51693;BMP280;37777;53.066;21.638;2023-12-14T10:05:56;100056.22;;;1.89
51693;BMP280;37777;53.066;21.638;2023-12-14T10:12:57;100051.47;;;1.85
51693;BMP280;37777;53.066;21.638;2023-12-14T10:19:59;100058.91;;;1.89
51693;BMP280;37777;53.066;21.638;2023-12-14T10:27:06;100061.47;;;1.94
51693;BMP280;37777;53.066;21.638;2023-12-14T10:34:10;100064.66;;;1.96
51693;BMP280;37777;53.066;21.638;2023-12-14T10:41:15;100063.59;;;1.97
51693;BMP280;37777;53.066;21.638;2023-12-14T10:48:19;100072.38;;;1.97
51693;BMP280;37777;53.066;21.638;2023-12-14T10:55:45;100071.59;;;1.97
51693;BMP280;37777;53.066;21.638;2023-12-14T11:02:48;100073.16;;;1.98
51693;BMP280;37777;53.066;21.638;2023-12-14T11:09:50;100086.72;;;2.01
51693;BMP280;37777;53.066;21.638;2023-12-14T11:16:57;100079.00;;;2.00
51693;BMP280;37777;53.066;21.638;2023-12-14T11:24:03;100089.16;;;1.98
51693;BMP280;37777;53.066;21.638;2023-12-14T11:31:04;100085.72;;;1.97
51693;BMP280;37777;53.066;21.638;2023-12-14T11:38:09;100090.75;;;1.99
51693;BMP280;37777;53.066;21.638;2023-12-14T11:45:14;100092.06;;;2.01
51693;BMP280;37777;53.066;21.638;2023-12-14T11:52:17;100109.97;;;2.01
51693;BMP280;37777;53.066;21.638;2023-12-14T11:59:19;100116.38;;;2.00
51693;BMP280;37777;53.066;21.638;2023-12-14T12:06:27;100127.63;;;1.97
51693;BMP280;37777;53.066;21.638;2023-12-14T12:13:34;100140.97;;;1.97
51693;BMP280;37777;53.066;21.638;2023-12-14T12:20:36;100143.66;;;1.97
51693;BMP280;37777;53.066;21.638;2023-12-14T12:27:38;100156.47;;;1.95
51693;BMP280;37777;53.066;21.638;2023-12-14T12:34:39;100156.47;;;1.95
51693;BMP280;37777;53.066;21.638;2023-12-14T12:41:41;100156.75;;;1.93
51693;BMP280;37777;53.066;21.638;2023-12-14T12:48:45;100181.56;;;1.94
51693;BMP280;37777;53.066;21.638;2023-12-14T12:55:48;100170.88;;;1.94
51693;BMP280;37777;53.066;21.638;2023-12-14T13:02:49;100176.75;;;1.96
51693;BMP280;37777;53.066;21.638;2023-12-14T13:09:51;100183.94;;;1.95
51693;BMP280;37777;53.066;21.638;2023-12-14T13:16:52;100186.88;;;1.94
51693;BMP280;37777;53.066;21.638;2023-12-14T13:23:54;100192.75;;;1.96
51693;BMP280;37777;53.066;21.638;2023-12-14T13:30:57;100202.97;;;1.89
51693;BMP280;37777;53.066;21.638;2023-12-14T13:37:59;100222.53;;;1.84
51693;BMP280;37777;53.066;21.638;2023-12-14T13:45:01;100225.97;;;1.84
51693;BMP280;37777;53.066;21.638;2023-12-14T13:52:03;100238.00;;;1.82
51693;BMP280;37777;53.066;21.638;2023-12-14T13:59:05;100234.25;;;1.83
51693;BMP280;37777;53.066;21.638;2023-12-14T14:06:07;100246.28;;;1.80
51693;BMP280;37777;53.066;21.638;2023-12-14T14:13:11;100248.47;;;1.78
51693;BMP280;37777;53.066;21.638;2023-12-14T14:20:13;100255.16;;;1.76
51693;BMP280;37777;53.066;21.638;2023-12-14T14:27:15;100260.81;;;1.69
51693;BMP280;37777;53.066;21.638;2023-12-14T14:34:16;100268.28;;;1.67
51693;BMP280;37777;53.066;21.638;2023-12-14T14:41:18;100284.28;;;1.67
51693;BMP280;37777;53.066;21.638;2023-12-14T14:48:19;100285.41;;;1.61
51693;BMP280;37777;53.066;21.638;2023-12-14T14:55:21;100297.69;;;1.57
51693;BMP280;37777;53.066;21.638;2023-12-14T15:10:21;100303.88;;;1.52
51693;BMP280;37777;53.066;21.638;2023-12-14T15:17:23;100319.53;;;1.29
51693;BMP280;37777;53.066;21.638;2023-12-14T15:24:25;100329.13;;;1.30
51693;BMP280;37777;53.066;21.638;2023-12-14T15:31:26;100335.00;;;1.27
51693;BMP280;37777;53.066;21.638;2023-12-14T15:38:28;100342.97;;;1.32
51693;BMP280;37777;53.066;21.638;2023-12-14T15:45:30;100358.72;;;1.29
51693;BMP280;37777;53.066;21.638;2023-12-14T15:52:34;100369.16;;;1.25
51693;BMP280;37777;53.066;21.638;2023-12-14T15:59:36;100376.88;;;1.27
51693;BMP280;37777;53.066;21.638;2023-12-14T16:06:38;100381.16;;;1.23
51693;BMP280;37777;53.066;21.638;2023-12-14T16:13:39;100395.56;;;1.16
51693;BMP280;37777;53.066;21.638;2023-12-14T16:20:41;100412.09;;;1.19
51693;BMP280;37777;53.066;21.638;2023-12-14T16:27:43;100407.00;;;1.22
51693;BMP280;37777;53.066;21.638;2023-12-14T16:34:47;100419.06;;;1.14
51693;BMP280;37777;53.066;21.638;2023-12-14T16:41:50;100427.56;;;1.11
51693;BMP280;37777;53.066;21.638;2023-12-14T16:48:51;100433.44;;;1.19
51693;BMP280;37777;53.066;21.638;2023-12-14T16:55:56;100444.59;;;1.15
51693;BMP280;37777;53.066;21.638;2023-12-14T17:03:01;100464.66;;;1.08
51693;BMP280;37777;53.066;21.638;2023-12-14T17:10:04;100476.66;;;1.05
51693;BMP280;37777;53.066;21.638;2023-12-14T17:17:05;100472.41;;;0.99
51693;BMP280;37777;53.066;21.638;2023-12-14T17:24:07;100475.84;;;1.05
51693;BMP280;37777;53.066;21.638;2023-12-14T17:31:11;100485.44;;;1.06
51693;BMP280;37777;53.066;21.638;2023-12-14T17:38:12;100497.97;;;1.05
51693;BMP280;37777;53.066;21.638;2023-12-14T17:45:14;100503.81;;;1.07
51693;BMP280;37777;53.066;21.638;2023-12-14T17:52:16;100512.63;;;1.03
51693;BMP280;37777;53.066;21.638;2023-12-14T17:59:18;100513.44;;;0.98
51693;BMP280;37777;53.066;21.638;2023-12-14T18:06:20;100535.03;;;0.91
51693;BMP280;37777;53.066;21.638;2023-12-14T18:13:23;100540.34;;;0.96
51693;BMP280;37777;53.066;21.638;2023-12-14T18:20:25;100551.81;;;0.92
51693;BMP280;37777;53.066;21.638;2023-12-14T18:27:27;100561.94;;;0.95
51693;BMP280;37777;53.066;21.638;2023-12-14T18:34:28;100569.94;;;0.90
51693;BMP280;37777;53.066;21.638;2023-12-14T18:41:30;100584.31;;;0.94
51693;BMP280;37777;53.066;21.638;2023-12-14T18:48:32;100594.97;;;0.89
51693;BMP280;37777;53.066;21.638;2023-12-14T18:55:35;100601.91;;;0.84
51693;BMP280;37777;53.066;21.638;2023-12-14T19:02:37;100610.44;;;0.92
51693;BMP280;37777;53.066;21.638;2023-12-14T19:09:43;100611.50;;;0.86
51693;BMP280;37777;53.066;21.638;2023-12-14T19:16:45;100626.41;;;0.81
51693;BMP280;37777;53.066;21.638;2023-12-14T19:23:49;100634.41;;;0.76
51693;BMP280;37777;53.066;21.638;2023-12-14T19:30:51;100635.72;;;0.74
51693;BMP280;37777;53.066;21.638;2023-12-14T19:37:53;100655.16;;;0.69
51693;BMP280;37777;53.066;21.638;2023-12-14T19:44:55;100667.97;;;0.67
51693;BMP280;37777;53.066;21.638;2023-12-14T19:51:56;100684.97;;;0.56
51693;BMP280;37777;53.066;21.638;2023-12-14T19:58:58;100701.50;;;0.58
51693;BMP280;37777;53.066;21.638;2023-12-14T20:06:00;100721.16;;;0.52
51693;BMP280;37777;53.066;21.638;2023-12-14T20:13:02;100729.69;;;0.48
51693;BMP280;37777;53.066;21.638;2023-12-14T20:20:08;100738.16;;;0.35
51693;BMP280;37777;53.066;21.638;2023-12-14T20:27:10;100748.25;;;0.33
51693;BMP280;37777;53.066;21.638;2023-12-14T20:34:11;100760.50;;;0.34
51693;BMP280;37777;53.066;21.638;2023-12-14T20:41:13;100769.06;;;0.46
51693;BMP280;37777;53.066;21.638;2023-12-14T20:48:15;100774.91;;;0.38
51693;BMP280;37777;53.066;21.638;2023-12-14T20:55:17;100784.50;;;0.39
51693;BMP280;37777;53.066;21.638;2023-12-14T21:02:19;100805.00;;;0.39
51693;BMP280;37777;53.066;21.638;2023-12-14T21:09:21;100805.53;;;0.41
51693;BMP280;37777;53.066;21.638;2023-12-14T21:16:22;100823.63;;;0.33
51693;BMP280;37777;53.066;21.638;2023-12-14T21:23:24;100822.78;;;0.28
51693;BMP280;37777;53.066;21.638;2023-12-14T21:30:25;100841.19;;;0.29
51693;BMP280;37777;53.066;21.638;2023-12-14T21:37:27;100854.22;;;0.26
51693;BMP280;37777;53.066;21.638;2023-12-14T21:44:29;100870.47;;;0.29
51693;BMP280;37777;53.066;21.638;2023-12-14T21:51:30;100878.44;;;0.24
51693;BMP280;37777;53.066;21.638;2023-12-14T21:58:32;100886.03;;;0.10
51693;BMP280;37777;53.066;21.638;2023-12-14T22:05:33;100904.09;;;0.03
51693;BMP280;37777;53.066;21.638;2023-12-14T22:12:37;100900.81;;;-0.04
51693;BMP280;37777;53.066;21.638;2023-12-14T22:19:39;100911.25;;;0.03
51693;BMP280;37777;53.066;21.638;2023-12-14T22:26:40;100927.47;;;0.01
51693;BMP280;37777;53.066;21.638;2023-12-14T22:33:42;100932.31;;;0.04
51693;BMP280;37777;53.066;21.638;2023-12-14T22:40:43;100939.31;;;0.15
51693;BMP280;37777;53.066;21.638;2023-12-14T22:47:45;100948.13;;;0.21
51693;BMP280;37777;53.066;21.638;2023-12-14T22:54:47;100946.28;;;0.22
51693;BMP280;37777;53.066;21.638;2023-12-14T23:01:49;100953.44;;;0.16
51693;BMP280;37777;53.066;21.638;2023-12-14T23:08:52;100969.38;;;0.11
51693;BMP280;37777;53.066;21.638;2023-12-14T23:15:53;100978.91;;;0.07
51693;BMP280;37777;53.066;21.638;2023-12-14T23:22:55;100961.81;;;0.03
51693;BMP280;37777;53.066;21.638;2023-12-14T23:29:56;100972.44;;;-0.03
51693;BMP280;37777;53.066;21.638;2023-12-14T23:36:58;100965.25;;;-0.02
51693;BMP280;37777;53.066;21.638;2023-12-14T23:43:59;100964.72;;;0.01
51693;BMP280;37777;53.066;21.638;2023-12-14T23:51:03;100980.16;;;-0.01
51693;BMP280;37777;53.066;21.638;2023-12-14T23:58:04;100989.50;;;0.02
